sensor_id;sensor_type;location;lat;lon;timestamp;temperature;humidity
8945;DHT22;4507;40.232;29.132;2022-09-09T00:01:59;18.70;73.20
8945;DHT22;4507;40.232;29.132;2022-09-09T00:04:29;18.90;73.70
8945;DHT22;4507;40.232;29.132;2022-09-09T00:07:05;18.80;73.70
8945;DHT22;4507;40.232;29.132;2022-09-09T00:09:39;18.80;73.80
8945;DHT22;4507;40.232;29.132;2022-09-09T00:12:10;18.80;73.80
8945;DHT22;4507;40.232;29.132;2022-09-09T00:14:42;18.80;73.80
8945;DHT22;4507;40.232;29.132;2022-09-09T00:17:14;18.80;73.70
8945;DHT22;4507;40.232;29.132;2022-09-09T00:20:09;18.70;73.50
8945;DHT22;4507;40.232;29.132;2022-09-09T00:22:42;18.60;73.60
8945;DHT22;4507;40.232;29.132;2022-09-09T00:25:15;18.50;73.80
8945;DHT22;4507;40.232;29.132;2022-09-09T00:27:48;18.60;73.90
8945;DHT22;4507;40.232;29.132;2022-09-09T00:30:18;18.60;74.00
8945;DHT22;4507;40.232;29.132;2022-09-09T00:32:50;18.60;74.10
8945;DHT22;4507;40.232;29.132;2022-09-09T00:35:25;18.60;74.30
8945;DHT22;4507;40.232;29.132;2022-09-09T00:37:58;18.60;74.40
8945;DHT22;4507;40.232;29.132;2022-09-09T00:40:30;18.80;74.60
8945;DHT22;4507;40.232;29.132;2022-09-09T00:43:22;18.50;74.20
8945;DHT22;4507;40.232;29.132;2022-09-09T00:45:56;18.50;74.10
8945;DHT22;4507;40.232;29.132;2022-09-09T00:48:29;18.50;74.10
8945;DHT22;4507;40.232;29.132;2022-09-09T00:51:00;18.50;74.20
8945;DHT22;4507;40.232;29.132;2022-09-09T00:53:35;18.50;74.20
8945;DHT22;4507;40.232;29.132;2022-09-09T00:56:09;18.30;74.10
8945;DHT22;4507;40.232;29.132;2022-09-09T00:58:40;18.30;74.30
8945;DHT22;4507;40.232;29.132;2022-09-09T01:01:11;18.30;74.40
8945;DHT22;4507;40.232;29.132;2022-09-09T01:03:42;18.20;74.50
8945;DHT22;4507;40.232;29.132;2022-09-09T01:06:14;18.10;74.60
8945;DHT22;4507;40.232;29.132;2022-09-09T01:08:58;18.10;74.80
8945;DHT22;4507;40.232;29.132;2022-09-09T01:11:31;18.00;74.90
8945;DHT22;4507;40.232;29.132;2022-09-09T01:14:03;17.90;75.10
8945;DHT22;4507;40.232;29.132;2022-09-09T01:16:38;17.90;75.40
8945;DHT22;4507;40.232;29.132;2022-09-09T01:19:09;17.80;75.50
8945;DHT22;4507;40.232;29.132;2022-09-09T01:21:41;17.80;75.80
8945;DHT22;4507;40.232;29.132;2022-09-09T01:24:22;17.70;75.80
8945;DHT22;4507;40.232;29.132;2022-09-09T01:27:03;17.70;76.00
8945;DHT22;4507;40.232;29.132;2022-09-09T01:29:33;17.60;76.00
8945;DHT22;4507;40.232;29.132;2022-09-09T01:32:02;17.60;76.20
8945;DHT22;4507;40.232;29.132;2022-09-09T01:34:31;17.70;76.50
8945;DHT22;4507;40.232;29.132;2022-09-09T01:37:02;17.50;76.40
8945;DHT22;4507;40.232;29.132;2022-09-09T01:39:33;17.40;76.40
8945;DHT22;4507;40.232;29.132;2022-09-09T01:42:09;17.30;76.50
8945;DHT22;4507;40.232;29.132;2022-09-09T01:44:38;17.30;76.80
8945;DHT22;4507;40.232;29.132;2022-09-09T01:47:07;17.30;77.00
8945;DHT22;4507;40.232;29.132;2022-09-09T01:49:50;17.30;77.20
8945;DHT22;4507;40.232;29.132;2022-09-09T01:52:23;17.30;77.40
8945;DHT22;4507;40.232;29.132;2022-09-09T01:55:10;17.30;77.40
8945;DHT22;4507;40.232;29.132;2022-09-09T01:57:42;17.30;77.40
8945;DHT22;4507;40.232;29.132;2022-09-09T02:00:14;17.30;77.60
8945;DHT22;4507;40.232;29.132;2022-09-09T02:02:44;17.30;77.80
8945;DHT22;4507;40.232;29.132;2022-09-09T02:05:24;17.20;77.90
8945;DHT22;4507;40.232;29.132;2022-09-09T02:07:58;17.20;78.20
8945;DHT22;4507;40.232;29.132;2022-09-09T02:10:42;17.20;78.30
8945;DHT22;4507;40.232;29.132;2022-09-09T02:13:28;17.10;78.30
8945;DHT22;4507;40.232;29.132;2022-09-09T02:15:58;17.10;78.40
8945;DHT22;4507;40.232;29.132;2022-09-09T02:18:30;17.10;78.60
8945;DHT22;4507;40.232;29.132;2022-09-09T02:21:01;17.10;78.80
8945;DHT22;4507;40.232;29.132;2022-09-09T02:23:30;17.00;78.90
8945;DHT22;4507;40.232;29.132;2022-09-09T02:26:03;17.00;79.00
8945;DHT22;4507;40.232;29.132;2022-09-09T02:28:33;17.00;79.00
8945;DHT22;4507;40.232;29.132;2022-09-09T02:31:04;17.00;79.10
8945;DHT22;4507;40.232;29.132;2022-09-09T02:33:38;17.00;79.10
8945;DHT22;4507;40.232;29.132;2022-09-09T02:36:08;17.00;79.20
8945;DHT22;4507;40.232;29.132;2022-09-09T02:38:40;17.00;79.20
8945;DHT22;4507;40.232;29.132;2022-09-09T02:41:13;17.00;79.20
8945;DHT22;4507;40.232;29.132;2022-09-09T02:43:43;17.00;79.10
8945;DHT22;4507;40.232;29.132;2022-09-09T02:46:35;16.90;79.00
8945;DHT22;4507;40.232;29.132;2022-09-09T02:49:06;16.90;78.90
8945;DHT22;4507;40.232;29.132;2022-09-09T02:51:40;16.90;79.00
8945;DHT22;4507;40.232;29.132;2022-09-09T02:54:16;16.80;79.00
8945;DHT22;4507;40.232;29.132;2022-09-09T02:56:46;16.80;79.10
8945;DHT22;4507;40.232;29.132;2022-09-09T02:59:19;16.80;79.20
8945;DHT22;4507;40.232;29.132;2022-09-09T03:01:48;16.70;79.20
8945;DHT22;4507;40.232;29.132;2022-09-09T03:04:17;16.70;79.30
8945;DHT22;4507;40.232;29.132;2022-09-09T03:06:46;16.70;79.40
8945;DHT22;4507;40.232;29.132;2022-09-09T03:09:18;16.70;79.50
8945;DHT22;4507;40.232;29.132;2022-09-09T03:11:48;16.70;79.50
8945;DHT22;4507;40.232;29.132;2022-09-09T03:14:20;16.70;79.70
8945;DHT22;4507;40.232;29.132;2022-09-09T03:16:52;16.70;79.80
8945;DHT22;4507;40.232;29.132;2022-09-09T03:19:21;16.80;79.90
8945;DHT22;4507;40.232;29.132;2022-09-09T03:21:50;16.60;79.90
8945;DHT22;4507;40.232;29.132;2022-09-09T03:24:19;16.60;80.10
8945;DHT22;4507;40.232;29.132;2022-09-09T03:26:48;16.50;80.10
8945;DHT22;4507;40.232;29.132;2022-09-09T03:29:17;16.50;80.30
8945;DHT22;4507;40.232;29.132;2022-09-09T03:31:47;16.50;80.40
8945;DHT22;4507;40.232;29.132;2022-09-09T03:34:17;16.50;80.60
8945;DHT22;4507;40.232;29.132;2022-09-09T03:36:46;16.50;80.70
8945;DHT22;4507;40.232;29.132;2022-09-09T03:39:15;16.50;80.70
8945;DHT22;4507;40.232;29.132;2022-09-09T03:41:44;16.50;80.80
8945;DHT22;4507;40.232;29.132;2022-09-09T03:44:15;16.50;80.80
8945;DHT22;4507;40.232;29.132;2022-09-09T03:46:44;16.50;80.90
8945;DHT22;4507;40.232;29.132;2022-09-09T03:49:14;16.50;81.20
8945;DHT22;4507;40.232;29.132;2022-09-09T03:51:43;16.50;81.30
8945;DHT22;4507;40.232;29.132;2022-09-09T03:54:13;16.60;81.50
8945;DHT22;4507;40.232;29.132;2022-09-09T03:56:42;16.60;81.50
8945;DHT22;4507;40.232;29.132;2022-09-09T03:59:12;16.60;81.50
8945;DHT22;4507;40.232;29.132;2022-09-09T04:01:42;16.70;81.60
8945;DHT22;4507;40.232;29.132;2022-09-09T04:04:13;16.70;81.60
8945;DHT22;4507;40.232;29.132;2022-09-09T04:06:43;16.70;81.50
8945;DHT22;4507;40.232;29.132;2022-09-09T04:09:11;16.70;81.30
8945;DHT22;4507;40.232;29.132;2022-09-09T04:11:41;16.50;81.10
8945;DHT22;4507;40.232;29.132;2022-09-09T04:14:10;16.60;81.20
8945;DHT22;4507;40.232;29.132;2022-09-09T04:16:39;16.60;81.30
8945;DHT22;4507;40.232;29.132;2022-09-09T04:19:12;16.60;81.40
8945;DHT22;4507;40.232;29.132;2022-09-09T04:21:44;16.60;81.70
8945;DHT22;4507;40.232;29.132;2022-09-09T04:24:13;16.60;81.70
8945;DHT22;4507;40.232;29.132;2022-09-09T04:26:43;16.70;81.90
8945;DHT22;4507;40.232;29.132;2022-09-09T04:29:12;16.70;82.10
8945;DHT22;4507;40.232;29.132;2022-09-09T04:31:41;16.70;82.10
8945;DHT22;4507;40.232;29.132;2022-09-09T04:34:09;16.70;82.20
8945;DHT22;4507;40.232;29.132;2022-09-09T04:36:38;16.80;82.30
8945;DHT22;4507;40.232;29.132;2022-09-09T04:39:09;16.70;82.30
8945;DHT22;4507;40.232;29.132;2022-09-09T04:41:38;16.80;82.40
8945;DHT22;4507;40.232;29.132;2022-09-09T04:44:09;17.00;82.50
8945;DHT22;4507;40.232;29.132;2022-09-09T04:46:38;17.00;82.50
8945;DHT22;4507;40.232;29.132;2022-09-09T04:49:26;17.00;82.60
8945;DHT22;4507;40.232;29.132;2022-09-09T04:51:55;17.00;82.60
8945;DHT22;4507;40.232;29.132;2022-09-09T04:54:25;17.00;82.70
8945;DHT22;4507;40.232;29.132;2022-09-09T04:56:55;17.10;83.00
8945;DHT22;4507;40.232;29.132;2022-09-09T04:59:24;17.20;83.20
8945;DHT22;4507;40.232;29.132;2022-09-09T05:01:55;17.20;83.30
8945;DHT22;4507;40.232;29.132;2022-09-09T05:04:24;17.30;83.30
8945;DHT22;4507;40.232;29.132;2022-09-09T05:06:52;17.40;83.40
8945;DHT22;4507;40.232;29.132;2022-09-09T05:09:22;17.50;83.40
8945;DHT22;4507;40.232;29.132;2022-09-09T05:11:53;17.60;83.40
8945;DHT22;4507;40.232;29.132;2022-09-09T05:14:31;17.60;83.20
8945;DHT22;4507;40.232;29.132;2022-09-09T05:17:00;17.70;83.10
8945;DHT22;4507;40.232;29.132;2022-09-09T05:19:29;17.80;83.10
8945;DHT22;4507;40.232;29.132;2022-09-09T05:21:58;17.90;83.10
8945;DHT22;4507;40.232;29.132;2022-09-09T05:24:35;18.00;83.10
8945;DHT22;4507;40.232;29.132;2022-09-09T05:27:06;18.00;83.10
8945;DHT22;4507;40.232;29.132;2022-09-09T05:29:38;18.10;83.10
8945;DHT22;4507;40.232;29.132;2022-09-09T05:32:08;18.20;83.10
8945;DHT22;4507;40.232;29.132;2022-09-09T05:34:42;18.30;83.10
8945;DHT22;4507;40.232;29.132;2022-09-09T05:37:11;18.40;83.00
8945;DHT22;4507;40.232;29.132;2022-09-09T05:39:40;18.50;82.80
8945;DHT22;4507;40.232;29.132;2022-09-09T05:42:10;18.60;82.60
8945;DHT22;4507;40.232;29.132;2022-09-09T05:44:38;18.60;82.30
8945;DHT22;4507;40.232;29.132;2022-09-09T05:47:09;18.80;82.10
8945;DHT22;4507;40.232;29.132;2022-09-09T05:49:38;18.90;81.70
8945;DHT22;4507;40.232;29.132;2022-09-09T05:52:06;19.00;81.10
8945;DHT22;4507;40.232;29.132;2022-09-09T05:54:36;19.10;80.80
8945;DHT22;4507;40.232;29.132;2022-09-09T05:57:06;19.20;80.70
8945;DHT22;4507;40.232;29.132;2022-09-09T05:59:36;19.20;80.30
8945;DHT22;4507;40.232;29.132;2022-09-09T06:02:05;19.30;80.10
8945;DHT22;4507;40.232;29.132;2022-09-09T06:04:36;19.40;79.80
8945;DHT22;4507;40.232;29.132;2022-09-09T06:07:05;19.50;79.60
8945;DHT22;4507;40.232;29.132;2022-09-09T06:09:34;19.60;79.30
8945;DHT22;4507;40.232;29.132;2022-09-09T06:12:03;19.70;79.20
8945;DHT22;4507;40.232;29.132;2022-09-09T06:14:36;19.80;79.00
8945;DHT22;4507;40.232;29.132;2022-09-09T06:17:10;19.80;78.70
8945;DHT22;4507;40.232;29.132;2022-09-09T06:19:39;20.00;78.60
8945;DHT22;4507;40.232;29.132;2022-09-09T06:22:07;20.10;78.10
8945;DHT22;4507;40.232;29.132;2022-09-09T06:24:36;20.20;77.80
8945;DHT22;4507;40.232;29.132;2022-09-09T06:27:05;20.20;77.40
8945;DHT22;4507;40.232;29.132;2022-09-09T06:29:37;20.30;77.10
8945;DHT22;4507;40.232;29.132;2022-09-09T06:32:07;20.40;76.90
8945;DHT22;4507;40.232;29.132;2022-09-09T06:34:36;20.40;76.70
8945;DHT22;4507;40.232;29.132;2022-09-09T06:37:05;20.50;76.50
8945;DHT22;4507;40.232;29.132;2022-09-09T06:39:40;20.60;76.40
8945;DHT22;4507;40.232;29.132;2022-09-09T06:42:09;20.80;76.40
8945;DHT22;4507;40.232;29.132;2022-09-09T06:44:58;20.80;76.10
8945;DHT22;4507;40.232;29.132;2022-09-09T06:47:43;20.90;75.90
8945;DHT22;4507;40.232;29.132;2022-09-09T06:50:13;21.00;75.20
8945;DHT22;4507;40.232;29.132;2022-09-09T06:52:42;21.10;74.70
8945;DHT22;4507;40.232;29.132;2022-09-09T06:55:10;21.10;74.20
8945;DHT22;4507;40.232;29.132;2022-09-09T06:57:40;21.20;74.00
8945;DHT22;4507;40.232;29.132;2022-09-09T07:00:16;21.30;73.90
8945;DHT22;4507;40.232;29.132;2022-09-09T07:02:45;21.40;74.30
8945;DHT22;4507;40.232;29.132;2022-09-09T07:05:14;21.50;73.20
8945;DHT22;4507;40.232;29.132;2022-09-09T07:07:44;21.50;72.50
8945;DHT22;4507;40.232;29.132;2022-09-09T07:10:16;21.60;72.20
8945;DHT22;4507;40.232;29.132;2022-09-09T07:12:45;21.70;71.90
8945;DHT22;4507;40.232;29.132;2022-09-09T07:15:20;21.80;71.40
8945;DHT22;4507;40.232;29.132;2022-09-09T07:17:50;21.90;71.10
8945;DHT22;4507;40.232;29.132;2022-09-09T07:20:20;22.00;70.90
8945;DHT22;4507;40.232;29.132;2022-09-09T07:22:55;22.10;70.70
8945;DHT22;4507;40.232;29.132;2022-09-09T07:25:34;22.20;70.60
8945;DHT22;4507;40.232;29.132;2022-09-09T07:28:02;22.30;70.40
8945;DHT22;4507;40.232;29.132;2022-09-09T07:30:32;22.40;70.20
8945;DHT22;4507;40.232;29.132;2022-09-09T07:33:20;22.50;70.10
8945;DHT22;4507;40.232;29.132;2022-09-09T07:35:48;22.60;70.00
8945;DHT22;4507;40.232;29.132;2022-09-09T07:38:17;22.70;69.70
8945;DHT22;4507;40.232;29.132;2022-09-09T07:40:46;22.90;69.10
8945;DHT22;4507;40.232;29.132;2022-09-09T07:43:15;23.00;68.90
8945;DHT22;4507;40.232;29.132;2022-09-09T07:45:46;23.10;68.50
8945;DHT22;4507;40.232;29.132;2022-09-09T07:48:15;23.20;68.10
8945;DHT22;4507;40.232;29.132;2022-09-09T07:50:44;23.30;67.90
8945;DHT22;4507;40.232;29.132;2022-09-09T07:53:12;23.50;67.60
8945;DHT22;4507;40.232;29.132;2022-09-09T07:55:41;23.50;66.50
8945;DHT22;4507;40.232;29.132;2022-09-09T07:58:10;23.60;66.60
8945;DHT22;4507;40.232;29.132;2022-09-09T08:00:38;23.70;65.90
8945;DHT22;4507;40.232;29.132;2022-09-09T08:03:12;23.80;65.60
8945;DHT22;4507;40.232;29.132;2022-09-09T08:06:00;24.00;65.60
8945;DHT22;4507;40.232;29.132;2022-09-09T08:08:30;24.10;65.30
8945;DHT22;4507;40.232;29.132;2022-09-09T08:11:03;24.20;64.80
8945;DHT22;4507;40.232;29.132;2022-09-09T08:13:31;24.30;64.70
8945;DHT22;4507;40.232;29.132;2022-09-09T08:16:04;24.40;64.70
8945;DHT22;4507;40.232;29.132;2022-09-09T08:18:35;24.60;64.10
8945;DHT22;4507;40.232;29.132;2022-09-09T08:21:05;24.70;63.70
8945;DHT22;4507;40.232;29.132;2022-09-09T08:23:35;24.90;63.20
8945;DHT22;4507;40.232;29.132;2022-09-09T08:26:09;25.00;62.60
8945;DHT22;4507;40.232;29.132;2022-09-09T08:28:38;25.10;61.80
8945;DHT22;4507;40.232;29.132;2022-09-09T08:31:08;25.20;61.20
8945;DHT22;4507;40.232;29.132;2022-09-09T08:33:40;25.40;61.10
8945;DHT22;4507;40.232;29.132;2022-09-09T08:36:09;25.50;60.70
8945;DHT22;4507;40.232;29.132;2022-09-09T08:38:38;25.60;60.10
8945;DHT22;4507;40.232;29.132;2022-09-09T08:41:13;25.80;60.00
8945;DHT22;4507;40.232;29.132;2022-09-09T08:43:44;25.90;59.30
8945;DHT22;4507;40.232;29.132;2022-09-09T08:46:15;26.00;59.00
8945;DHT22;4507;40.232;29.132;2022-09-09T08:48:50;26.20;58.80
8945;DHT22;4507;40.232;29.132;2022-09-09T08:51:21;26.20;58.30
8945;DHT22;4507;40.232;29.132;2022-09-09T08:53:50;26.30;58.00
8945;DHT22;4507;40.232;29.132;2022-09-09T08:56:25;26.40;57.10
8945;DHT22;4507;40.232;29.132;2022-09-09T08:58:57;26.50;56.40
8945;DHT22;4507;40.232;29.132;2022-09-09T09:01:38;26.70;56.40
8945;DHT22;4507;40.232;29.132;2022-09-09T09:04:19;26.70;55.90
8945;DHT22;4507;40.232;29.132;2022-09-09T09:06:51;26.80;55.70
8945;DHT22;4507;40.232;29.132;2022-09-09T09:09:24;26.90;55.30
8945;DHT22;4507;40.232;29.132;2022-09-09T09:11:56;27.00;55.00
8945;DHT22;4507;40.232;29.132;2022-09-09T09:14:34;27.10;54.20
8945;DHT22;4507;40.232;29.132;2022-09-09T09:17:10;27.30;53.60
8945;DHT22;4507;40.232;29.132;2022-09-09T09:19:43;27.40;53.40
8945;DHT22;4507;40.232;29.132;2022-09-09T09:22:15;27.50;52.70
8945;DHT22;4507;40.232;29.132;2022-09-09T09:24:49;27.70;52.60
8945;DHT22;4507;40.232;29.132;2022-09-09T09:27:25;27.90;51.70
8945;DHT22;4507;40.232;29.132;2022-09-09T09:29:56;28.00;51.50
8945;DHT22;4507;40.232;29.132;2022-09-09T09:32:49;28.10;51.50
8945;DHT22;4507;40.232;29.132;2022-09-09T09:35:22;28.30;51.70
8945;DHT22;4507;40.232;29.132;2022-09-09T09:37:51;28.50;51.70
8945;DHT22;4507;40.232;29.132;2022-09-09T09:40:47;28.60;50.50
8945;DHT22;4507;40.232;29.132;2022-09-09T09:43:18;28.80;50.70
8945;DHT22;4507;40.232;29.132;2022-09-09T09:45:48;28.90;50.70
8945;DHT22;4507;40.232;29.132;2022-09-09T09:48:37;29.00;50.60
8945;DHT22;4507;40.232;29.132;2022-09-09T09:51:08;29.20;49.80
8945;DHT22;4507;40.232;29.132;2022-09-09T09:53:40;29.30;49.00
8945;DHT22;4507;40.232;29.132;2022-09-09T09:56:11;29.40;48.80
8945;DHT22;4507;40.232;29.132;2022-09-09T09:58:47;29.50;48.80
8945;DHT22;4507;40.232;29.132;2022-09-09T10:01:22;29.60;48.60
8945;DHT22;4507;40.232;29.132;2022-09-09T10:03:52;29.70;48.30
8945;DHT22;4507;40.232;29.132;2022-09-09T10:06:30;29.90;48.50
8945;DHT22;4507;40.232;29.132;2022-09-09T10:08:59;30.00;48.10
8945;DHT22;4507;40.232;29.132;2022-09-09T10:11:39;30.10;47.60
8945;DHT22;4507;40.232;29.132;2022-09-09T10:14:15;30.30;47.30
8945;DHT22;4507;40.232;29.132;2022-09-09T10:16:54;30.40;47.20
8945;DHT22;4507;40.232;29.132;2022-09-09T10:19:29;30.60;46.70
8945;DHT22;4507;40.232;29.132;2022-09-09T10:22:05;30.80;46.80
8945;DHT22;4507;40.232;29.132;2022-09-09T10:25:01;31.00;46.50
8945;DHT22;4507;40.232;29.132;2022-09-09T10:27:35;31.30;46.20
8945;DHT22;4507;40.232;29.132;2022-09-09T10:30:10;31.60;46.00
8945;DHT22;4507;40.232;29.132;2022-09-09T10:32:46;31.90;45.10
8945;DHT22;4507;40.232;29.132;2022-09-09T10:35:21;32.20;44.30
8945;DHT22;4507;40.232;29.132;2022-09-09T10:40:45;32.80;43.00
8945;DHT22;4507;40.232;29.132;2022-09-09T10:43:27;33.20;42.90
8945;DHT22;4507;40.232;29.132;2022-09-09T10:46:03;33.60;41.90
8945;DHT22;4507;40.232;29.132;2022-09-09T10:48:36;33.90;41.60
8945;DHT22;4507;40.232;29.132;2022-09-09T10:51:13;34.20;41.40
8945;DHT22;4507;40.232;29.132;2022-09-09T10:53:50;34.30;41.00
8945;DHT22;4507;40.232;29.132;2022-09-09T10:56:26;34.70;41.10
8945;DHT22;4507;40.232;29.132;2022-09-09T10:58:56;34.90;40.20
8945;DHT22;4507;40.232;29.132;2022-09-09T11:01:28;35.10;40.10
8945;DHT22;4507;40.232;29.132;2022-09-09T11:04:00;35.20;39.60
8945;DHT22;4507;40.232;29.132;2022-09-09T11:06:30;35.40;39.30
8945;DHT22;4507;40.232;29.132;2022-09-09T11:09:01;35.60;39.10
8945;DHT22;4507;40.232;29.132;2022-09-09T11:11:34;35.80;39.30
8945;DHT22;4507;40.232;29.132;2022-09-09T11:14:07;35.90;38.90
8945;DHT22;4507;40.232;29.132;2022-09-09T11:16:38;35.90;38.70
8945;DHT22;4507;40.232;29.132;2022-09-09T11:19:11;36.00;38.50
8945;DHT22;4507;40.232;29.132;2022-09-09T11:21:42;36.00;37.70
8945;DHT22;4507;40.232;29.132;2022-09-09T11:24:13;36.10;37.50
8945;DHT22;4507;40.232;29.132;2022-09-09T11:26:46;36.20;37.30
8945;DHT22;4507;40.232;29.132;2022-09-09T11:29:22;36.50;36.70
8945;DHT22;4507;40.232;29.132;2022-09-09T11:31:57;36.60;36.00
8945;DHT22;4507;40.232;29.132;2022-09-09T11:37:23;36.70;34.60
8945;DHT22;4507;40.232;29.132;2022-09-09T11:42:47;36.30;34.40
8945;DHT22;4507;40.232;29.132;2022-09-09T11:45:21;36.10;34.70
8945;DHT22;4507;40.232;29.132;2022-09-09T11:47:53;36.00;35.00
8945;DHT22;4507;40.232;29.132;2022-09-09T11:50:33;35.90;35.20
8945;DHT22;4507;40.232;29.132;2022-09-09T11:53:17;35.90;35.00
8945;DHT22;4507;40.232;29.132;2022-09-09T11:56:01;35.80;35.10
8945;DHT22;4507;40.232;29.132;2022-09-09T11:58:33;35.70;34.50
8945;DHT22;4507;40.232;29.132;2022-09-09T12:01:12;35.60;34.40
8945;DHT22;4507;40.232;29.132;2022-09-09T12:03:41;35.40;34.50
8945;DHT22;4507;40.232;29.132;2022-09-09T12:06:14;35.20;34.70
8945;DHT22;4507;40.232;29.132;2022-09-09T12:08:44;34.90;34.90
8945;DHT22;4507;40.232;29.132;2022-09-09T12:11:23;34.70;34.80
8945;DHT22;4507;40.232;29.132;2022-09-09T12:13:54;34.50;35.30
8945;DHT22;4507;40.232;29.132;2022-09-09T12:16:30;34.30;36.30
8945;DHT22;4507;40.232;29.132;2022-09-09T12:19:04;34.30;35.90
8945;DHT22;4507;40.232;29.132;2022-09-09T12:21:34;34.20;36.30
8945;DHT22;4507;40.232;29.132;2022-09-09T12:24:06;34.10;36.50
8945;DHT22;4507;40.232;29.132;2022-09-09T12:26:37;34.10;36.60
8945;DHT22;4507;40.232;29.132;2022-09-09T12:29:13;33.80;36.30
8945;DHT22;4507;40.232;29.132;2022-09-09T12:31:46;33.70;36.70
8945;DHT22;4507;40.232;29.132;2022-09-09T12:34:37;33.60;36.90
8945;DHT22;4507;40.232;29.132;2022-09-09T12:37:11;33.60;36.80
8945;DHT22;4507;40.232;29.132;2022-09-09T12:39:42;33.40;37.00
8945;DHT22;4507;40.232;29.132;2022-09-09T12:42:15;33.30;37.70
8945;DHT22;4507;40.232;29.132;2022-09-09T12:44:52;33.40;37.00
8945;DHT22;4507;40.232;29.132;2022-09-09T12:47:22;33.40;36.80
8945;DHT22;4507;40.232;29.132;2022-09-09T12:49:56;33.30;36.50
8945;DHT22;4507;40.232;29.132;2022-09-09T12:52:26;33.30;36.60
8945;DHT22;4507;40.232;29.132;2022-09-09T12:54:57;33.20;36.60
8945;DHT22;4507;40.232;29.132;2022-09-09T12:57:26;33.20;36.80
8945;DHT22;4507;40.232;29.132;2022-09-09T13:00:05;33.30;37.50
8945;DHT22;4507;40.232;29.132;2022-09-09T13:02:35;33.30;37.40
8945;DHT22;4507;40.232;29.132;2022-09-09T13:05:09;33.40;37.50
8945;DHT22;4507;40.232;29.132;2022-09-09T13:07:41;33.50;37.60
8945;DHT22;4507;40.232;29.132;2022-09-09T13:10:11;33.60;37.60
8945;DHT22;4507;40.232;29.132;2022-09-09T13:12:51;33.80;37.50
8945;DHT22;4507;40.232;29.132;2022-09-09T13:15:22;33.80;37.50
8945;DHT22;4507;40.232;29.132;2022-09-09T13:17:52;33.90;37.80
8945;DHT22;4507;40.232;29.132;2022-09-09T13:20:22;34.00;37.50
8945;DHT22;4507;40.232;29.132;2022-09-09T13:22:52;34.10;37.40
8945;DHT22;4507;40.232;29.132;2022-09-09T13:25:23;34.10;37.30
8945;DHT22;4507;40.232;29.132;2022-09-09T13:27:57;34.10;37.10
8945;DHT22;4507;40.232;29.132;2022-09-09T13:30:29;34.00;36.90
8945;DHT22;4507;40.232;29.132;2022-09-09T13:33:03;33.80;36.60
8945;DHT22;4507;40.232;29.132;2022-09-09T13:35:32;33.60;36.70
8945;DHT22;4507;40.232;29.132;2022-09-09T13:38:06;33.30;37.10
8945;DHT22;4507;40.232;29.132;2022-09-09T13:40:37;33.10;37.70
8945;DHT22;4507;40.232;29.132;2022-09-09T13:43:10;32.80;38.10
8945;DHT22;4507;40.232;29.132;2022-09-09T13:45:51;32.70;38.30
8945;DHT22;4507;40.232;29.132;2022-09-09T13:48:21;32.40;38.30
8945;DHT22;4507;40.232;29.132;2022-09-09T13:50:53;32.30;38.60
8945;DHT22;4507;40.232;29.132;2022-09-09T13:53:22;32.10;38.80
8945;DHT22;4507;40.232;29.132;2022-09-09T13:55:50;31.90;39.80
8945;DHT22;4507;40.232;29.132;2022-09-09T13:58:19;31.70;39.70
8945;DHT22;4507;40.232;29.132;2022-09-09T14:00:51;31.60;40.20
8945;DHT22;4507;40.232;29.132;2022-09-09T14:03:19;31.50;40.70
8945;DHT22;4507;40.232;29.132;2022-09-09T14:05:48;31.40;41.00
8945;DHT22;4507;40.232;29.132;2022-09-09T14:08:22;31.20;41.30
8945;DHT22;4507;40.232;29.132;2022-09-09T14:10:50;31.20;41.80
8945;DHT22;4507;40.232;29.132;2022-09-09T14:13:19;31.00;42.20
8945;DHT22;4507;40.232;29.132;2022-09-09T14:15:49;30.90;42.60
8945;DHT22;4507;40.232;29.132;2022-09-09T14:18:19;30.80;42.80
8945;DHT22;4507;40.232;29.132;2022-09-09T14:20:49;30.70;43.10
8945;DHT22;4507;40.232;29.132;2022-09-09T14:23:18;30.70;43.70
8945;DHT22;4507;40.232;29.132;2022-09-09T14:25:48;30.60;43.90
8945;DHT22;4507;40.232;29.132;2022-09-09T14:28:17;30.50;44.70
8945;DHT22;4507;40.232;29.132;2022-09-09T14:31:05;30.50;44.40
8945;DHT22;4507;40.232;29.132;2022-09-09T14:33:35;30.40;44.70
8945;DHT22;4507;40.232;29.132;2022-09-09T14:36:03;30.40;45.10
8945;DHT22;4507;40.232;29.132;2022-09-09T14:38:33;30.40;45.40
8945;DHT22;4507;40.232;29.132;2022-09-09T14:41:06;30.40;45.50
8945;DHT22;4507;40.232;29.132;2022-09-09T14:43:34;30.40;45.40
8945;DHT22;4507;40.232;29.132;2022-09-09T14:46:06;30.40;45.30
8945;DHT22;4507;40.232;29.132;2022-09-09T14:48:37;30.30;45.20
8945;DHT22;4507;40.232;29.132;2022-09-09T14:51:07;30.20;45.30
8945;DHT22;4507;40.232;29.132;2022-09-09T14:53:36;30.20;45.80
8945;DHT22;4507;40.232;29.132;2022-09-09T14:56:06;30.10;45.90
8945;DHT22;4507;40.232;29.132;2022-09-09T14:58:35;30.00;46.10
8945;DHT22;4507;40.232;29.132;2022-09-09T15:01:05;29.90;46.20
8945;DHT22;4507;40.232;29.132;2022-09-09T15:03:34;29.80;46.30
8945;DHT22;4507;40.232;29.132;2022-09-09T15:06:08;29.80;46.60
8945;DHT22;4507;40.232;29.132;2022-09-09T15:08:37;29.70;46.90
8945;DHT22;4507;40.232;29.132;2022-09-09T15:11:09;29.50;47.00
8945;DHT22;4507;40.232;29.132;2022-09-09T15:13:38;29.50;47.20
8945;DHT22;4507;40.232;29.132;2022-09-09T15:16:08;29.40;47.30
8945;DHT22;4507;40.232;29.132;2022-09-09T15:18:37;29.30;47.40
8945;DHT22;4507;40.232;29.132;2022-09-09T15:21:30;29.20;47.50
8945;DHT22;4507;40.232;29.132;2022-09-09T15:23:59;29.10;47.90
8945;DHT22;4507;40.232;29.132;2022-09-09T15:26:28;29.00;48.10
8945;DHT22;4507;40.232;29.132;2022-09-09T15:28:57;29.00;48.50
8945;DHT22;4507;40.232;29.132;2022-09-09T15:31:27;28.90;48.70
8945;DHT22;4507;40.232;29.132;2022-09-09T15:33:58;28.80;49.50
8945;DHT22;4507;40.232;29.132;2022-09-09T15:36:30;28.70;49.20
8945;DHT22;4507;40.232;29.132;2022-09-09T15:39:00;28.60;49.40
8945;DHT22;4507;40.232;29.132;2022-09-09T15:41:29;28.60;49.70
8945;DHT22;4507;40.232;29.132;2022-09-09T15:43:58;28.50;49.80
8945;DHT22;4507;40.232;29.132;2022-09-09T15:46:28;28.40;49.80
8945;DHT22;4507;40.232;29.132;2022-09-09T15:48:58;28.30;50.10
8945;DHT22;4507;40.232;29.132;2022-09-09T15:51:27;28.10;50.20
8945;DHT22;4507;40.232;29.132;2022-09-09T15:54:13;28.00;50.50
8945;DHT22;4507;40.232;29.132;2022-09-09T15:56:44;27.90;50.80
8945;DHT22;4507;40.232;29.132;2022-09-09T15:59:32;27.80;51.00
8945;DHT22;4507;40.232;29.132;2022-09-09T16:02:01;27.70;51.40
8945;DHT22;4507;40.232;29.132;2022-09-09T16:04:29;27.60;51.70
8945;DHT22;4507;40.232;29.132;2022-09-09T16:06:59;27.40;51.90
8945;DHT22;4507;40.232;29.132;2022-09-09T16:09:29;27.30;52.10
8945;DHT22;4507;40.232;29.132;2022-09-09T16:11:59;27.30;52.40
8945;DHT22;4507;40.232;29.132;2022-09-09T16:14:28;27.10;52.60
8945;DHT22;4507;40.232;29.132;2022-09-09T16:17:01;27.00;52.80
8945;DHT22;4507;40.232;29.132;2022-09-09T16:19:29;26.90;53.10
8945;DHT22;4507;40.232;29.132;2022-09-09T16:21:58;26.80;53.40
8945;DHT22;4507;40.232;29.132;2022-09-09T16:24:26;26.70;53.60
8945;DHT22;4507;40.232;29.132;2022-09-09T16:26:57;26.60;53.70